createdAt,value
2022-08-11T00:02:01.937Z,100871.22
2022-08-11T00:05:08.286Z,100864.44
2022-08-11T00:08:11.962Z,100867.41
2022-08-11T00:11:17.120Z,100852.75
2022-08-11T00:14:22.211Z,100852.97
2022-08-11T00:17:31.971Z,100844.50
2022-08-11T00:20:39.619Z,100849.72
2022-08-11T00:23:45.980Z,100851.41
2022-08-11T00:26:54.532Z,100848.72
2022-08-11T00:29:58.265Z,100844.59
2022-08-11T00:33:00.809Z,100841.66
2022-08-11T00:36:06.728Z,100842.75
2022-08-11T00:39:11.117Z,100842.47
2022-08-11T00:42:26.052Z,100847.41
2022-08-11T00:45:46.162Z,100845.12
2022-08-11T00:49:18.152Z,100848.84
2022-08-11T00:52:39.448Z,100847.69
2022-08-11T00:55:57.736Z,100840.22
2022-08-11T00:59:35.497Z,100844.78
2022-08-11T01:03:04.286Z,100837.06
2022-08-11T01:06:41.848Z,100854.94
2022-08-11T01:10:05.129Z,100849.00
2022-08-11T01:13:21.850Z,100844.47
2022-08-11T01:17:09.686Z,100844.31
2022-08-11T01:20:48.397Z,100839.12
2022-08-11T01:24:26.380Z,100841.81
2022-08-11T01:28:15.326Z,100835.22
2022-08-11T01:31:34.735Z,100836.91
2022-08-11T01:34:59.318Z,100845.06
2022-08-11T01:38:20.774Z,100839.88
2022-08-11T01:42:14.893Z,100833.53
2022-08-11T01:45:43.050Z,100831.88
2022-08-11T01:49:02.278Z,100831.91
2022-08-11T01:52:34.858Z,100829.59
2022-08-11T01:55:49.894Z,100829.56
2022-08-11T01:58:56.063Z,100818.44
2022-08-11T02:02:05.006Z,100820.53
2022-08-11T02:05:27.429Z,100818.22
2022-08-11T02:08:54.994Z,100824.63
2022-08-11T02:12:28.091Z,100820.03
2022-08-11T02:15:39.286Z,100818.75
2022-08-11T02:19:07.930Z,100817.81
2022-08-11T02:22:49.170Z,100817.41
2022-08-11T02:26:13.307Z,100821.09
2022-08-11T02:29:21.867Z,100815.72
2022-08-11T02:32:50.645Z,100819.22
2022-08-11T02:36:12.601Z,100820.47
2022-08-11T02:39:20.265Z,100813.47
2022-08-11T02:42:35.312Z,100808.12
2022-08-11T02:45:48.553Z,100813.13
2022-08-11T02:49:18.061Z,100810.47
2022-08-11T02:52:59.681Z,100803.44
2022-08-11T02:56:27.357Z,100797.28
2022-08-11T02:59:51.904Z,100793.16
2022-08-11T03:03:51.303Z,100797.50
2022-08-11T03:07:38.495Z,100800.63
2022-08-11T03:11:06.777Z,100799.37
2022-08-11T03:14:54.762Z,100803.91
2022-08-11T03:18:16.487Z,100800.41
2022-08-11T03:22:01.828Z,100804.94
2022-08-11T03:24:55.814Z,100803.91
2022-08-11T03:28:24.602Z,100798.16
2022-08-11T03:31:37.125Z,100807.28
2022-08-11T03:34:45.435Z,100809.72
2022-08-11T03:38:06.605Z,100802.31
2022-08-11T03:42:01.855Z,100818.84
2022-08-11T03:45:25.596Z,100805.22
2022-08-11T03:48:47.846Z,100809.38
2022-08-11T03:52:01.850Z,100807.72
2022-08-11T03:55:15.923Z,100818.47
2022-08-11T03:58:56.029Z,100814.50
2022-08-11T04:02:20.971Z,100810.59
2022-08-11T04:06:18.040Z,100816.16
2022-08-11T04:09:32.430Z,100818.88
2022-08-11T04:13:08.906Z,100814.31
2022-08-11T04:16:41.513Z,100814.94
2022-08-11T04:19:54.530Z,100819.28
2022-08-11T04:23:06.309Z,100810.59
2022-08-11T04:26:34.336Z,100820.72
2022-08-11T04:30:03.151Z,100820.09
2022-08-11T04:33:37.685Z,100820.72
2022-08-11T04:37:34.984Z,100827.28
2022-08-11T04:41:18.099Z,100825.03
2022-08-11T04:44:38.715Z,100822.09
2022-08-11T04:48:37.987Z,100837.53
2022-08-11T04:52:20.532Z,100833.16
2022-08-11T04:56:15.525Z,100831.03
2022-08-11T05:00:01.799Z,100829.97
2022-08-11T05:03:22.236Z,100830.22
2022-08-11T05:06:58.485Z,100831.00
2022-08-11T05:10:40.055Z,100838.66
2022-08-11T05:14:06.860Z,100830.22
2022-08-11T05:17:53.782Z,100839.06
2022-08-11T05:21:16.675Z,100836.16
2022-08-11T05:24:45.220Z,100847.47
2022-08-11T05:28:18.303Z,100845.94
2022-08-11T05:31:45.394Z,100843.37
2022-08-11T05:34:54.032Z,100853.87
2022-08-11T05:38:21.456Z,100857.47
2022-08-11T05:41:45.851Z,100858.25
2022-08-11T05:45:15.708Z,100856.84
2022-08-11T05:48:37.526Z,100868.09
2022-08-11T05:52:05.577Z,100861.13
2022-08-11T05:55:34.919Z,100855.81
2022-08-11T05:58:43.237Z,100849.91
2022-08-11T06:01:48.066Z,100851.69
2022-08-11T06:04:58.719Z,100851.00
2022-08-11T06:08:02.358Z,100847.13
2022-08-11T06:11:06.290Z,100855.06
2022-08-11T06:14:13.362Z,100856.03
2022-08-11T06:17:23.236Z,100849.00
2022-08-11T06:20:26.498Z,100852.66
2022-08-11T06:23:36.086Z,100852.94
2022-08-11T06:27:01.755Z,100856.84
2022-08-11T06:30:17.154Z,100849.81
2022-08-11T06:33:31.528Z,100847.59
2022-08-11T06:36:54.337Z,100847.25
2022-08-11T06:40:07.343Z,100845.47
2022-08-11T06:43:19.794Z,100837.69
2022-08-11T06:46:33.775Z,100840.72
2022-08-11T06:50:06.354Z,100841.66
2022-08-11T06:53:10.581Z,100839.31
2022-08-11T06:56:42.099Z,100833.34
2022-08-11T07:00:04.426Z,100833.22
2022-08-11T07:03:11.542Z,100838.25
2022-08-11T07:07:19.090Z,100840.81
2022-08-11T07:11:03.899Z,100833.09
2022-08-11T07:14:27.260Z,100840.81
2022-08-11T07:17:35.157Z,100831.19
2022-08-11T07:21:02.081Z,100828.81
2022-08-11T07:24:34.595Z,100837.22
2022-08-11T07:28:19.410Z,100837.81
2022-08-11T07:31:46.298Z,100833.34
2022-08-11T07:34:55.570Z,100832.75
2022-08-11T07:38:07.060Z,100835.94
2022-08-11T07:41:12.634Z,100846.31
2022-08-11T07:44:17.123Z,100837.66
2022-08-11T07:47:39.241Z,100837.78
2022-08-11T07:51:03.795Z,100831.69
2022-08-11T07:54:16.900Z,100818.72
2022-08-11T07:58:13.772Z,100826.09
2022-08-11T08:01:22.317Z,100819.25
2022-08-11T08:04:47.353Z,100832.41
2022-08-11T08:08:08.657Z,100819.72
2022-08-11T08:11:30.734Z,100814.25
2022-08-11T08:14:53.196Z,100811.62
2022-08-11T08:18:08.981Z,100812.12
2022-08-11T08:21:21.854Z,100809.03
2022-08-11T08:24:25.700Z,100810.84
2022-08-11T08:27:28.601Z,100810.53
2022-08-11T08:30:50.713Z,100798.94
2022-08-11T08:33:53.690Z,100809.16
2022-08-11T08:36:56.819Z,100801.94
2022-08-11T08:39:59.885Z,100798.16
2022-08-11T08:43:09.152Z,100789.81
2022-08-11T08:46:14.180Z,100797.59
2022-08-11T08:49:22.683Z,100784.28
2022-08-11T08:52:37.173Z,100786.19
2022-08-11T08:55:45.562Z,100781.72
2022-08-11T08:58:49.495Z,100783.53
2022-08-11T09:02:02.781Z,100796.28
2022-08-11T09:05:09.093Z,100779.78
2022-08-11T09:08:12.812Z,100773.22
2022-08-11T09:11:34.982Z,100785.87
2022-08-11T09:14:59.633Z,100776.56
2022-08-11T09:18:09.372Z,100760.75
2022-08-11T09:21:14.813Z,100768.97
2022-08-11T09:24:58.014Z,100759.25
2022-08-11T09:28:03.110Z,100759.09
2022-08-11T09:31:07.023Z,100758.28
2022-08-11T09:34:11.341Z,100753.41
2022-08-11T09:37:55.178Z,100744.97
2022-08-11T09:41:00.425Z,100737.91
2022-08-11T09:44:23.505Z,100743.38
2022-08-11T09:47:31.649Z,100747.53
2022-08-11T09:50:35.854Z,100746.41
2022-08-11T09:53:41.709Z,100739.47
2022-08-11T09:57:12.416Z,100739.66
2022-08-11T10:00:16.568Z,100739.78
2022-08-11T10:03:24.958Z,100733.94
2022-08-11T10:06:48.613Z,100740.00
2022-08-11T10:10:02.479Z,100723.00
2022-08-11T10:14:10.054Z,100728.63
2022-08-11T10:16:41.734Z,100729.91
2022-08-11T10:20:05.506Z,100723.16
2022-08-11T10:23:31.170Z,100723.66
2022-08-11T10:26:53.656Z,100711.84
2022-08-11T10:30:16.327Z,100711.59
2022-08-11T10:33:45.746Z,100714.41
2022-08-11T10:37:03.827Z,100699.03
2022-08-11T10:40:09.068Z,100695.84
2022-08-11T10:43:14.496Z,100694.47
2022-08-11T10:46:57.162Z,100686.84
2022-08-11T10:50:22.411Z,100686.91
2022-08-11T10:53:43.846Z,100684.97
2022-08-11T10:57:05.686Z,100681.75
2022-08-11T11:00:14.308Z,100684.19
2022-08-11T11:03:22.943Z,100679.00
2022-08-11T11:06:33.590Z,100677.75
2022-08-11T11:09:48.913Z,100665.22
2022-08-11T11:13:17.803Z,100663.34
2022-08-11T11:16:40.882Z,100663.25
2022-08-11T11:19:44.975Z,100659.53
2022-08-11T11:22:52.387Z,100648.88
2022-08-11T11:26:27.492Z,100645.47
2022-08-11T11:30:00.073Z,100650.03
2022-08-11T11:33:13.392Z,100638.50
2022-08-11T11:36:47.462Z,100636.87
2022-08-11T11:39:50.688Z,100632.34
2022-08-11T11:42:58.487Z,100633.25
2022-08-11T11:46:01.875Z,100633.63
2022-08-11T11:49:10.720Z,100626.75
2022-08-11T11:52:21.174Z,100623.25
2022-08-11T11:55:25.827Z,100619.72
2022-08-11T11:58:47.403Z,100624.53
2022-08-11T12:01:52.690Z,100615.94
2022-08-11T12:04:56.362Z,100621.62
2022-08-11T12:08:16.029Z,100609.81
2022-08-11T12:11:40.377Z,100606.03
2022-08-11T12:14:46.062Z,100609.87
2022-08-11T12:17:52.795Z,100604.06
2022-08-11T12:20:55.876Z,100597.00
2022-08-11T12:24:20.308Z,100600.16
2022-08-11T12:27:26.487Z,100589.56
2022-08-11T12:30:30.194Z,100595.12
2022-08-11T12:33:35.151Z,100590.53
2022-08-11T12:36:54.496Z,100584.88
2022-08-11T12:40:43.756Z,100586.44
2022-08-11T12:44:04.371Z,100577.59
2022-08-11T12:47:07.789Z,100584.97
2022-08-11T12:50:29.879Z,100574.06
2022-08-11T12:53:35.094Z,100573.66
2022-08-11T12:57:00.002Z,100574.66
2022-08-11T13:00:24.680Z,100574.16
2022-08-11T13:03:52.380Z,100563.16
2022-08-11T13:06:55.264Z,100556.13
2022-08-11T13:09:59.234Z,100557.69
2022-08-11T13:13:52.553Z,100558.25
2022-08-11T13:16:56.699Z,100553.69
2022-08-11T13:20:00.613Z,100552.44
2022-08-11T13:23:04.124Z,100541.34
2022-08-11T13:26:08.871Z,100541.44
2022-08-11T13:29:12.827Z,100547.50
2022-08-11T13:32:16.418Z,100548.69
2022-08-11T13:35:20.355Z,100553.25
2022-08-11T13:38:25.287Z,100538.94
2022-08-11T13:41:39.334Z,100541.31
2022-08-11T13:44:43.825Z,100537.16
2022-08-11T13:47:48.320Z,100535.34
2022-08-11T13:51:09.688Z,100537.19
2022-08-11T13:54:19.581Z,100534.22
2022-08-11T13:58:07.516Z,100522.47
2022-08-11T14:00:52.373Z,100518.59
2022-08-11T14:04:30.515Z,100523.09
2022-08-11T14:07:24.894Z,100521.47
2022-08-11T14:10:33.128Z,100511.94
2022-08-11T14:13:42.208Z,100516.94
2022-08-11T14:16:47.872Z,100505.69
2022-08-11T14:19:53.555Z,100504.78
2022-08-11T14:22:56.551Z,100511.06
2022-08-11T14:26:18.883Z,100510.72
2022-08-11T14:29:25.352Z,100502.94
2022-08-11T14:32:28.390Z,100503.56
2022-08-11T14:35:31.441Z,100500.06
2022-08-11T14:38:35.545Z,100500.97
2022-08-11T14:42:11.894Z,100494.81
2022-08-11T14:45:58.487Z,100496.22
2022-08-11T14:48:59.930Z,100488.81
2022-08-11T14:52:20.845Z,100501.94
2022-08-11T14:55:45.778Z,100493.12
2022-08-11T14:58:48.690Z,100498.16
2022-08-11T15:02:10.545Z,100494.63
2022-08-11T15:05:14.273Z,100487.81
2022-08-11T15:08:19.057Z,100496.00
2022-08-11T15:11:43.718Z,100505.00
2022-08-11T15:15:07.023Z,100493.56
2022-08-11T15:18:14.259Z,100506.06
2022-08-11T15:21:35.940Z,100497.13
2022-08-11T15:24:38.682Z,100498.47
2022-08-11T15:28:07.065Z,100497.66
2022-08-11T15:31:31.437Z,100484.63
2022-08-11T15:34:53.007Z,100491.16
2022-08-11T15:37:58.349Z,100489.22
2022-08-11T15:41:25.332Z,100484.03
2022-08-11T15:45:06.717Z,100484.59
2022-08-11T15:48:14.377Z,100493.03
2022-08-11T15:51:46.585Z,100481.88
2022-08-11T15:54:50.717Z,100483.47
2022-08-11T15:58:13.986Z,100481.47
2022-08-11T16:01:39.057Z,100485.78
2022-08-11T16:04:45.562Z,100480.56
2022-08-11T16:07:51.022Z,100477.50
2022-08-11T16:10:56.686Z,100482.66
2022-08-11T16:14:24.646Z,100466.03
2022-08-11T16:17:33.096Z,100479.56
2022-08-11T16:20:36.908Z,100477.63
2022-08-11T16:23:43.158Z,100468.94
2022-08-11T16:27:10.281Z,100471.37
2022-08-11T16:30:11.689Z,100466.19
2022-08-11T16:33:48.485Z,100472.44
2022-08-11T16:36:58.264Z,100471.41
2022-08-11T16:40:01.442Z,100464.03
2022-08-11T16:43:32.292Z,100459.66
2022-08-11T16:46:54.942Z,100465.94
2022-08-11T16:49:59.648Z,100463.22
2022-08-11T16:53:02.797Z,100457.69
2022-08-11T16:56:06.457Z,100467.69
2022-08-11T16:59:19.552Z,100463.38
2022-08-11T17:02:44.202Z,100472.03
2022-08-11T17:06:25.123Z,100477.47
2022-08-11T17:09:49.480Z,100477.63
2022-08-11T17:13:10.532Z,100488.81
2022-08-11T17:16:17.487Z,100494.84
2022-08-11T17:20:41.419Z,100500.09
2022-08-11T17:23:13.028Z,100507.34
2022-08-11T17:26:19.875Z,100505.97
2022-08-11T17:29:54.438Z,100517.72
2022-08-11T17:33:16.624Z,100515.00
2022-08-11T17:36:20.485Z,100511.00
2022-08-11T17:39:30.252Z,100517.31
2022-08-11T17:42:54.085Z,100517.78
2022-08-11T17:46:16.148Z,100521.22
2022-08-11T17:49:20.467Z,100529.31
2022-08-11T17:52:43.864Z,100536.41
2022-08-11T17:56:07.534Z,100538.19
2022-08-11T17:59:32.463Z,100542.31
2022-08-11T18:02:57.157Z,100549.03
2022-08-11T18:06:04.568Z,100545.75
2022-08-11T18:09:38.857Z,100542.63
2022-08-11T18:13:01.672Z,100540.88
2022-08-11T18:16:23.210Z,100553.44
2022-08-11T18:19:44.586Z,100552.03
2022-08-11T18:23:08.422Z,100550.75
2022-08-11T18:26:31.252Z,100546.06
2022-08-11T18:29:56.358Z,100557.81
2022-08-11T18:37:24.759Z,100559.31
2022-08-11T18:40:49.280Z,100562.28
2022-08-11T18:44:14.638Z,100566.97
2022-08-11T18:47:40.945Z,100562.16
2022-08-11T18:51:30.343Z,100568.97
2022-08-11T18:54:48.867Z,100558.41
2022-08-11T18:58:15.395Z,100570.28
2022-08-11T19:01:41.032Z,100568.03
2022-08-11T19:05:05.364Z,100573.78
2022-08-11T19:08:29.330Z,100579.41
2022-08-11T19:11:52.752Z,100579.53
2022-08-11T19:15:17.193Z,100568.34
2022-08-11T19:18:41.218Z,100566.97
2022-08-11T19:22:03.718Z,100576.09
2022-08-11T19:25:26.877Z,100580.09
2022-08-11T19:28:50.374Z,100577.62
2022-08-11T19:32:13.466Z,100576.00
2022-08-11T19:35:36.166Z,100580.69
2022-08-11T19:38:57.776Z,100575.31
2022-08-11T19:42:20.558Z,100566.84
2022-08-11T19:45:41.969Z,100567.66
2022-08-11T19:49:10.981Z,100561.44
2022-08-11T19:52:33.564Z,100567.66
2022-08-11T19:55:57.630Z,100568.63
2022-08-11T19:59:20.243Z,100562.72
2022-08-11T20:02:41.836Z,100579.00
2022-08-11T20:06:04.490Z,100574.16
2022-08-11T20:09:28.514Z,100567.00
2022-08-11T20:13:12.495Z,100580.94
2022-08-11T20:16:44.184Z,100574.25
2022-08-11T20:20:07.795Z,100564.72
2022-08-11T20:23:33.449Z,100572.09
2022-08-11T20:26:55.846Z,100565.13
2022-08-11T20:30:18.776Z,100570.38
2022-08-11T20:33:41.802Z,100568.38
2022-08-11T20:37:04.891Z,100568.03
2022-08-11T20:40:27.442Z,100574.09
2022-08-11T20:44:08.380Z,100565.63
2022-08-11T20:47:56.168Z,100577.97
2022-08-11T20:51:17.912Z,100570.91
2022-08-11T20:54:43.840Z,100577.84
2022-08-11T20:58:07.398Z,100580.25
2022-08-11T21:01:42.136Z,100584.03
2022-08-11T21:05:03.339Z,100584.44
2022-08-11T21:08:27.069Z,100588.38
2022-08-11T21:11:53.559Z,100591.91
2022-08-11T21:15:38.645Z,100591.19
2022-08-11T21:19:01.337Z,100593.72
2022-08-11T21:22:27.785Z,100601.50
2022-08-11T21:25:54.274Z,100607.38
2022-08-11T21:29:18.563Z,100605.06
2022-08-11T21:32:41.548Z,100609.69
2022-08-11T21:36:03.558Z,100604.53
2022-08-11T21:39:26.355Z,100610.34
2022-08-11T21:42:51.185Z,100615.88
2022-08-11T21:46:13.952Z,100613.66
2022-08-11T21:49:38.985Z,100604.38
2022-08-11T21:53:01.699Z,100614.38
2022-08-11T21:56:27.356Z,100615.19
2022-08-11T22:00:00.153Z,100622.41
2022-08-11T22:03:23.638Z,100621.28
2022-08-11T22:06:45.779Z,100622.47
2022-08-11T22:10:32.015Z,100617.25
2022-08-11T22:14:01.239Z,100614.53
2022-08-11T22:17:28.694Z,100619.38
2022-08-11T22:20:51.004Z,100615.91
2022-08-11T22:24:12.530Z,100617.03
2022-08-11T22:27:40.901Z,100610.34
2022-08-11T22:31:02.008Z,100616.44
2022-08-11T22:34:24.915Z,100605.28
2022-08-11T22:37:47.950Z,100606.94
2022-08-11T22:41:09.824Z,100602.16
2022-08-11T22:44:30.772Z,100599.31
2022-08-11T22:47:54.536Z,100592.28
2022-08-11T22:51:18.267Z,100585.69
2022-08-11T22:54:40.536Z,100588.00
2022-08-11T22:58:01.945Z,100590.91
2022-08-11T23:01:24.010Z,100591.94
2022-08-11T23:04:45.946Z,100599.00
2022-08-11T23:08:15.863Z,100592.81
2022-08-11T23:12:07.959Z,100585.81
2022-08-11T23:15:19.582Z,100591.84
2022-08-11T23:18:41.565Z,100590.59
2022-08-11T23:22:02.917Z,100582.97
2022-08-11T23:25:24.223Z,100583.34
2022-08-11T23:28:46.692Z,100580.25
2022-08-11T23:32:10.027Z,100575.91
2022-08-11T23:35:38.959Z,100575.09
2022-08-11T23:39:02.111Z,100570.16
2022-08-11T23:42:24.354Z,100568.28
2022-08-11T23:45:46.014Z,100567.50
2022-08-11T23:49:12.050Z,100558.56
2022-08-11T23:52:34.998Z,100562.28
2022-08-11T23:55:57.048Z,100566.41
2022-08-11T23:59:20.708Z,100567.22
